PATC/TNC METAR and TAF weather

Enter ICAO airport designator
Station Type Date Time Source
PATC METAR 2020/01/20 21:55 UTC NOAA

PATC 202155Z AUTO 17024G29KT 10SM -SN OVC008 M10/M11 A2927 RMK AO2 PK WND 17032/2102 SNB2055 SLP918 P0000 T10981106


Station Type Date Time Source
PATC Decoded METAR 2020/01/20 21:55 UTC NOAA

Tin City Airways Facilities Sector, AK, United States (PATC) 65-34N 167-55W
Jan 20, 2020 - 04:55 PM EST / 2020.01.20 2155 UTC
Wind: from the S (170 degrees) at 28 MPH (24 KT) gusting to 33 MPH (29 KT):0
Visibility: 10 mile(s):0
Sky conditions: overcast
Weather: light snow
Precipitation last hour: A trace
Temperature: 14.4 F (-9.8 C)
Windchill: -5 F (-21 C):2
Dew Point: 12.9 F (-10.6 C)
Relative Humidity: 93%
Pressure (altimeter): 29.27 in. Hg (991 hPa)
ob: PATC 202155Z AUTO 17024G29KT 10SM -SN OVC008 M10/M11 A2927 RMK AO2 PK WND 17032/2102 SNB2055 SLP918 P0000 T10981106
cycle: 22

Station Type Date Time Source
PATC TAF 2016/08/27 04:12 UTC NOAA

TAF PATC 270400Z 2704/2810 18012G18KT 0400 FG OVC002 QNH3015INS TX10/2718Z TN06/2710Z

Example: see airport list